Time;durP1;ratioP1;P1;durP2;ratioP2;P2;SDS_P1;SDS_P2;PMS_P1;PMS_P2;Temp;Humidity;BMP_temperature;BMP_pressure;BME280_temperature;BME280_humidity;BME280_pressure;Samples;Min_cycle;Max_cycle;Signal;HPM_P1;HPM_P2
2021/06/05 00:02:17;;;;;;;15.40;8.65;;;;;;;16.31;64.39;100363.53;260329;1107;103094;-71
2021/06/05 00:07:21;;;;;;;8.28;7.33;;;;;;;16.37;63.35;100357.13;260493;1107;103350;-74
2021/06/05 00:12:28;;;;;;;8.60;7.75;;;;;;;16.41;63.03;100352.05;261014;1107;102960;-74
2021/06/05 00:17:34;;;;;;;7.63;6.93;;;;;;;16.45;63.58;100353.97;260595;1107;103049;-74
2021/06/05 00:22:39;;;;;;;8.83;7.65;;;;;;;16.50;63.36;100351.33;260705;1107;103018;-73
2021/06/05 00:27:44;;;;;;;12.03;7.45;;;;;;;16.51;63.54;100355.61;261018;1107;103412;-74
2021/06/05 00:32:49;;;;;;;16.80;8.63;;;;;;;16.57;63.60;100358.34;262211;1107;101692;-74
2021/06/05 00:37:56;;;;;;;8.63;7.80;;;;;;;16.61;63.43;100362.14;262609;1107;101023;-74
2021/06/05 00:43:01;;;;;;;7.13;6.45;;;;;;;16.62;62.75;100348.42;262686;1107;101443;-74
2021/06/05 00:48:07;;;;;;;9.73;8.80;;;;;;;16.63;62.94;100339.28;261868;1107;103114;-71
2021/06/05 00:53:15;;;;;;;8.65;7.75;;;;;;;16.53;63.29;100341.89;262240;1107;102982;-74
2021/06/05 00:58:21;;;;;;;9.20;8.40;;;;;;;16.44;63.81;100335.39;262071;1107;102235;-74
2021/06/05 01:03:27;;;;;;;11.25;6.63;;;;;;;16.40;64.07;100335.09;260357;1107;103088;-73
2021/06/05 01:08:58;;;;;;;9.38;7.95;;;;;;;16.26;64.02;100325.83;260456;1107;104126;-73
2021/06/05 01:14:35;;;;;;;9.85;8.60;;;;;;;16.12;64.74;100330.04;260285;1107;102996;-75
2021/06/05 01:19:44;;;;;;;9.05;8.25;;;;;;;16.10;64.79;100330.30;260823;1107;102969;-74
2021/06/05 01:25:10;;;;;;;9.53;8.13;;;;;;;16.06;64.85;100325.68;260732;1107;103015;-75
2021/06/05 01:30:33;;;;;;;11.15;7.83;;;;;;;16.06;65.15;100321.11;260655;1107;103067;-75
2021/06/05 01:35:38;;;;;;;9.73;8.15;;;;;;;16.03;64.82;100320.81;261110;1107;102992;-74
2021/06/05 01:40:47;;;;;;;9.45;8.23;;;;;;;15.94;64.88;100322.33;260180;1103;103042;-74
2021/06/05 01:45:53;;;;;;;13.43;7.28;;;;;;;15.82;65.08;100314.45;260260;1107;102971;-74
2021/06/05 01:51:08;;;;;;;6.98;6.28;;;;;;;15.66;65.12;100318.86;260068;1107;103021;-75
2021/06/05 01:56:38;;;;;;;9.53;8.63;;;;;;;15.50;65.07;100309.00;260984;1107;103040;-73
2021/06/05 02:01:44;;;;;;;6.48;5.70;;;;;;;15.43;65.75;100303.82;261330;1107;102934;-74
2021/06/05 02:06:50;;;;;;;8.70;7.88;;;;;;;15.34;65.40;100296.45;260100;1107;102943;-74
2021/06/05 02:12:10;;;;;;;9.75;8.60;;;;;;;15.32;66.62;100303.95;260081;1107;102982;-74
2021/06/05 02:17:15;;;;;;;9.13;8.23;;;;;;;15.10;66.38;100298.61;261164;1107;102955;-74
2021/06/05 02:22:25;;;;;;;8.93;8.13;;;;;;;15.01;66.37;100305.47;261249;1103;102960;-73
2021/06/05 02:27:31;;;;;;;9.13;6.83;;;;;;;14.95;66.69;100307.30;261114;1106;102969;-74
2021/06/05 02:32:40;;;;;;;8.23;7.50;;;;;;;14.96;66.62;100298.19;261795;1102;103091;-73
2021/06/05 02:37:58;;;;;;;12.60;7.20;;;;;;;14.89;66.28;100302.92;262198;1106;103928;-72
2021/06/05 02:43:06;;;;;;;8.70;6.43;;;;;;;14.80;66.43;100299.86;261906;1103;102998;-73
2021/06/05 02:48:11;;;;;;;5.87;5.20;;;;;;;14.65;66.42;100296.98;262430;1107;103333;-74
2021/06/05 02:53:16;;;;;;;8.20;7.08;;;;;;;14.59;66.66;100295.28;262032;1107;102757;-72
2021/06/05 02:58:20;;;;;;;8.05;6.73;;;;;;;14.63;66.78;100296.41;262684;1107;101457;-74
2021/06/05 03:03:24;;;;;;;8.25;7.50;;;;;;;14.63;67.00;100292.92;261452;1107;102943;-74
2021/06/05 03:08:33;;;;;;;10.85;7.13;;;;;;;14.66;66.99;100289.75;261206;1103;103202;-74
2021/06/05 03:13:39;;;;;;;12.70;8.43;;;;;;;14.73;67.34;100287.67;260158;1107;103177;-73
2021/06/05 03:18:46;;;;;;;10.00;8.53;;;;;;;14.91;66.83;100289.26;261135;1107;102958;-73
2021/06/05 03:23:52;;;;;;;8.55;7.45;;;;;;;15.09;66.71;100284.37;260845;1107;102961;-73
2021/06/05 03:28:56;;;;;;;12.53;8.50;;;;;;;15.24;66.55;100275.69;260022;1107;102966;-72
2021/06/05 03:34:03;;;;;;;8.48;7.73;;;;;;;15.36;66.85;100289.77;260061;1107;103043;-73
2021/06/05 03:39:09;;;;;;;11.30;8.90;;;;;;;15.48;66.68;100295.01;260213;1107;103084;-73
2021/06/05 03:44:14;;;;;;;10.40;7.48;;;;;;;15.61;66.09;100283.05;260091;1107;103036;-70
2021/06/05 03:49:19;;;;;;;10.53;9.50;;;;;;;15.76;66.29;100281.33;261310;1107;102963;-74
2021/06/05 03:54:24;;;;;;;10.23;9.25;;;;;;;15.88;66.10;100289.24;260400;1107;102971;-71
2021/06/05 03:59:29;;;;;;;13.15;8.68;;;;;;;16.05;66.31;100281.84;260486;1107;103039;-74
2021/06/05 04:04:34;;;;;;;13.25;8.63;;;;;;;16.26;66.33;100287.36;260178;1107;103067;-74
2021/06/05 04:09:40;;;;;;;9.23;8.30;;;;;;;16.58;66.14;100274.64;260673;1107;102959;-72
2021/06/05 04:14:45;;;;;;;9.10;7.90;;;;;;;16.99;65.51;100270.30;261161;1107;103068;-74
2021/06/05 04:19:51;;;;;;;12.88;9.23;;;;;;;17.13;64.90;100263.33;260837;1107;102993;-74
2021/06/05 04:24:56;;;;;;;9.08;8.20;;;;;;;18.88;63.88;100258.44;260365;1107;103013;-74
2021/06/05 04:30:04;;;;;;;8.68;7.53;;;;;;;18.91;63.05;100254.38;261093;1107;103037;-73
2021/06/05 04:35:10;;;;;;;9.65;8.68;;;;;;;19.50;62.36;100257.86;260873;1107;102949;-73
2021/06/05 04:40:16;;;;;;;8.05;6.78;;;;;;;19.44;61.12;100268.95;262379;1107;101847;-74
2021/06/05 04:45:21;;;;;;;9.08;8.28;;;;;;;19.40;60.96;100270.59;262427;1107;102940;-74
2021/06/05 04:50:30;;;;;;;15.00;7.95;;;;;;;19.55;61.10;100273.24;262101;1107;101809;-74
2021/06/05 04:55:36;;;;;;;11.80;8.65;;;;;;;19.79;60.70;100265.22;262538;1107;101564;-73
2021/06/05 05:00:45;;;;;;;10.33;9.03;;;;;;;19.84;59.91;100279.52;261430;1107;103036;-74
2021/06/05 05:05:53;;;;;;;10.08;8.25;;;;;;;20.56;58.99;100270.73;261700;1106;102958;-71
2021/06/05 05:10:59;;;;;;;8.98;8.00;;;;;;;21.58;57.25;100260.20;260830;1107;102964;-74
2021/06/05 05:16:05;;;;;;;8.68;7.55;;;;;;;22.44;55.94;100255.23;260790;1107;103625;-74
2021/06/05 05:21:10;;;;;;;9.55;8.20;;;;;;;23.76;53.85;100253.23;261240;1107;103045;-74
2021/06/05 05:26:16;;;;;;;9.95;9.00;;;;;;;24.81;52.18;100260.80;260264;1107;102992;-74
2021/06/05 05:31:25;;;;;;;11.43;8.35;;;;;;;26.01;50.05;100262.02;261162;1107;102965;-75
2021/06/05 05:36:34;;;;;;;8.83;8.03;;;;;;;26.94;48.24;100261.18;259973;1106;103015;-75
2021/06/05 05:41:41;;;;;;;9.38;8.40;;;;;;;25.95;47.85;100277.00;261223;1107;102986;-72
2021/06/05 05:46:46;;;;;;;9.60;8.05;;;;;;;26.06;47.68;100280.97;260687;1107;103047;-73
2021/06/05 05:51:50;;;;;;;7.15;6.55;;;;;;;29.23;45.10;100286.11;260833;1107;103075;-70
2021/06/05 05:56:55;;;;;;;8.63;7.55;;;;;;;29.68;43.14;100291.38;260902;1101;102990;-75
2021/06/05 06:01:59;;;;;;;7.37;6.67;;;;;;;28.96;42.60;100297.82;261263;1107;103390;-71
2021/06/05 06:07:03;;;;;;;8.38;7.65;;;;;;;28.73;41.81;100303.75;260173;1107;103094;-73
2021/06/05 06:12:08;;;;;;;11.15;9.53;;;;;;;27.23;42.05;100295.95;259900;1107;103934;-72
2021/06/05 06:17:12;;;;;;;;;;;;;;;26.04;43.39;100299.62;260851;1107;102958;-74
2021/06/05 06:22:15;;;;;;;13.78;12.48;;;;;;;25.24;44.04;100298.31;261162;1107;103081;-78
2021/06/05 06:27:19;;;;;;;13.75;11.93;;;;;;;24.90;43.99;100299.81;261285;1107;103343;-74
2021/06/05 06:32:24;;;;;;;12.83;11.73;;;;;;;25.42;44.43;100295.28;261104;1107;103108;-71
2021/06/05 06:37:28;;;;;;;14.10;12.70;;;;;;;25.45;43.79;100296.56;262424;1107;102965;-71
2021/06/05 06:42:33;;;;;;;25.60;11.38;;;;;;;24.99;44.22;100302.60;262381;1107;103048;-78
2021/06/05 06:47:38;;;;;;;16.08;14.38;;;;;;;24.62;44.63;100301.96;262427;1107;103191;-76
2021/06/05 06:52:42;;;;;;;20.98;14.20;;;;;;;24.08;44.73;100297.64;261916;1107;103110;-76
2021/06/05 06:57:46;;;;;;;15.53;13.63;;;;;;;23.51;45.10;100302.80;262402;1107;101302;-76
2021/06/05 07:02:50;;;;;;;15.60;13.95;;;;;;;23.04;45.96;100299.44;261458;1102;102958;-73
2021/06/05 07:08:30;;;;;;;14.73;13.23;;;;;;;22.65;46.80;100308.06;261758;1107;102940;-78
2021/06/05 07:13:34;;;;;;;16.40;14.08;;;;;;;22.48;47.47;100313.29;260834;1101;103045;-75
2021/06/05 07:18:39;;;;;;;15.30;13.40;;;;;;;22.25;47.92;100293.34;261724;1107;102939;-79
2021/06/05 07:23:44;;;;;;;16.48;11.45;;;;;;;22.11;48.19;100303.34;260220;1107;103107;-74
2021/06/05 07:28:55;;;;;;;12.83;11.60;;;;;;;22.09;48.36;100294.69;260798;1101;103134;-72
2021/06/05 07:33:59;;;;;;;16.00;11.60;;;;;;;22.05;48.76;100305.33;260683;1107;102967;-70
2021/06/05 07:39:07;;;;;;;15.95;10.88;;;;;;;21.89;49.07;100281.44;259965;1102;103025;-70
2021/06/05 07:44:11;;;;;;;11.47;10.27;;;;;;;21.89;49.36;100286.86;260341;1107;103038;-73
2021/06/05 07:49:15;;;;;;;16.78;9.93;;;;;;;22.51;50.06;100280.09;260670;1107;103039;-71
2021/06/05 07:54:20;;;;;;;12.80;10.60;;;;;;;22.78;49.02;100277.41;260545;1107;103030;-70
2021/06/05 07:59:31;;;;;;;10.63;9.63;;;;;;;22.98;48.89;100278.90;261224;1107;103011;-70
2021/06/05 08:04:36;;;;;;;11.10;10.05;;;;;;;23.34;48.97;100275.41;261155;1107;102960;-71
2021/06/05 08:09:41;;;;;;;13.20;10.05;;;;;;;23.87;48.63;100269.29;260824;1107;103099;-72
2021/06/05 08:14:45;;;;;;;12.53;10.77;;;;;;;24.64;48.37;100268.94;260810;1107;102944;-71
2021/06/05 08:19:49;;;;;;;11.50;10.40;;;;;;;24.70;47.24;100259.50;260923;1107;103014;-72
2021/06/05 08:24:54;;;;;;;18.97;11.90;;;;;;;24.91;47.61;100265.97;260190;1107;103066;-72
2021/06/05 08:29:58;;;;;;;12.13;11.05;;;;;;;25.04;45.86;100258.81;262053;1107;102971;-72
2021/06/05 08:35:03;;;;;;;11.20;10.03;;;;;;;25.77;47.90;100246.96;261898;1107;102706;-72
2021/06/05 08:40:10;;;;;;;11.08;9.60;;;;;;;26.21;45.93;100249.61;261284;1107;102956;-71
2021/06/05 08:45:17;;;;;;;11.63;10.43;;;;;;;26.45;45.17;100247.92;262646;1107;101446;-72
2021/06/05 08:50:28;;;;;;;12.15;9.70;;;;;;;26.53;44.85;100237.29;262617;1107;101409;-74
2021/06/05 08:55:39;;;;;;;13.88;10.75;;;;;;;26.81;44.52;100233.76;262673;1106;101328;-74
2021/06/05 09:00:47;;;;;;;18.45;11.18;;;;;;;26.92;43.98;100231.41;262194;1107;102946;-75
2021/06/05 09:06:00;;;;;;;14.40;11.05;;;;;;;26.89;43.03;100232.11;260936;1107;108054;-73
2021/06/05 09:11:05;;;;;;;12.60;11.40;;;;;;;26.74;42.86;100232.66;261959;1107;103082;-75
2021/06/05 09:16:19;;;;;;;16.15;10.45;;;;;;;26.68;42.42;100231.25;261528;1107;102985;-75
2021/06/05 09:21:28;;;;;;;13.00;11.53;;;;;;;26.54;41.60;100222.49;261849;1107;102943;-74
2021/06/05 09:26:33;;;;;;;12.18;10.33;;;;;;;26.57;41.49;100217.17;260338;1107;102970;-74
2021/06/05 09:32:10;;;;;;;9.68;8.78;;;;;;;26.56;40.99;100225.70;260617;1107;103175;-73
2021/06/05 09:37:39;;;;;;;10.50;7.80;;;;;;;26.58;41.49;100210.57;260373;1107;102965;-74
2021/06/05 09:42:47;;;;;;;6.60;5.73;;;;;;;26.75;40.70;100209.66;260117;1107;103025;-73
2021/06/05 09:48:12;;;;;;;7.98;6.88;;;;;;;26.81;41.02;100208.34;260571;1107;103094;-74
2021/06/05 09:53:28;;;;;;;12.93;7.35;;;;;;;27.04;40.15;100206.11;260653;1107;103057;-73
2021/06/05 09:58:40;;;;;;;18.83;8.65;;;;;;;27.34;39.72;100207.64;260680;1107;102939;-77
2021/06/05 10:03:46;;;;;;;11.40;7.30;;;;;;;27.06;39.36;100212.85;260497;1107;103070;-72
2021/06/05 10:08:51;;;;;;;8.95;8.05;;;;;;;26.19;39.21;100203.48;260459;1107;104289;-71
2021/06/05 10:14:07;;;;;;;;;;;;;;;25.76;40.84;100206.32;260625;1107;103075;-74
2021/06/05 10:19:15;;;;;;;;;;;;;;;25.64;40.31;100204.27;260400;1107;102940;-76
2021/06/05 10:24:45;;;;;;;6.50;5.38;;;;;;;26.12;40.50;100197.71;261266;1107;103155;-74
2021/06/05 10:29:53;;;;;;;6.08;4.48;;;;;;;26.29;39.59;100186.72;261219;1107;101528;-74
2021/06/05 10:35:17;;;;;;;5.83;5.18;;;;;;;26.47;38.15;100188.27;261575;1107;103043;-74
2021/06/05 10:40:27;;;;;;;6.65;5.60;;;;;;;25.99;38.35;100194.05;260165;1107;103107;-73
2021/06/05 10:45:40;;;;;;;5.40;4.90;;;;;;;25.64;38.83;100182.44;260796;1107;102948;-79
2021/06/05 10:51:11;;;;;;;10.13;5.98;;;;;;;25.26;39.38;100197.84;260955;1107;103081;-75
2021/06/05 10:56:41;;;;;;;5.40;4.90;;;;;;;24.79;39.29;100194.88;261596;1107;102965;-75
2021/06/05 11:01:48;;;;;;;5.33;4.93;;;;;;;24.85;40.47;100190.88;260390;1103;103460;-75
2021/06/05 11:06:53;;;;;;;6.08;4.95;;;;;;;25.05;39.38;100200.41;260448;1107;102961;-74
2021/06/05 11:12:23;;;;;;;6.60;4.23;;;;;;;24.81;39.37;100198.89;261725;1107;102940;-72
2021/06/05 11:17:30;;;;;;;5.55;5.05;;;;;;;24.59;39.17;100184.58;260909;1107;103042;-74
2021/06/05 11:22:59;;;;;;;4.03;3.73;;;;;;;25.02;39.91;100185.49;259916;1107;103094;-72
2021/06/05 11:28:31;;;;;;;4.55;4.25;;;;;;;25.02;39.18;100171.85;260639;1102;103122;-71
2021/06/05 11:33:45;;;;;;;4.33;4.13;;;;;;;25.56;39.22;100185.14;260641;1103;103040;-74
2021/06/05 11:38:50;;;;;;;4.78;4.23;;;;;;;25.77;38.18;100175.16;260146;1103;103023;-74
2021/06/05 11:44:14;;;;;;;4.13;3.80;;;;;;;25.83;37.88;100173.86;260641;1106;103162;-73
2021/06/05 11:50:03;;;;;;;4.93;3.55;;;;;;;25.84;37.29;100170.00;260608;1103;103090;-74
2021/06/05 11:55:14;;;;;;;4.85;4.03;;;;;;;25.97;37.35;100168.21;259640;1106;103061;-74
2021/06/05 12:00:25;;;;;;;4.78;3.95;;;;;;;25.70;37.22;100167.45;259976;1107;104155;-74
2021/06/05 12:05:31;;;;;;;6.30;3.50;;;;;;;25.09;37.59;100161.24;260401;1107;104203;-74
2021/06/05 12:10:40;;;;;;;5.68;4.28;;;;;;;25.19;37.52;100157.40;260362;1102;103120;-73
2021/06/05 12:15:49;;;;;;;7.83;3.55;;;;;;;25.39;38.11;100155.92;260021;1102;103059;-73
2021/06/05 12:20:58;;;;;;;3.55;3.20;;;;;;;25.51;37.67;100150.62;259877;1107;103104;-72
2021/06/05 12:26:10;;;;;;;2.88;2.68;;;;;;;25.59;38.02;100149.81;260430;1107;102985;-73
2021/06/05 12:31:32;;;;;;;2.83;2.63;;;;;;;25.36;37.39;100156.59;260671;1107;103214;-74
2021/06/05 12:36:46;;;;;;;3.18;2.88;;;;;;;25.55;37.35;100140.66;259906;1107;103460;-75
2021/06/05 12:41:55;;;;;;;2.90;2.70;;;;;;;25.70;37.07;100139.36;260207;1107;103408;-74
2021/06/05 12:47:05;;;;;;;3.98;3.35;;;;;;;25.21;36.77;100143.44;259862;1107;103065;-72
2021/06/05 12:52:17;;;;;;;3.25;2.95;;;;;;;25.31;37.43;100132.20;261444;1107;102956;-71
2021/06/05 12:57:40;;;;;;;6.80;3.30;;;;;;;25.16;36.37;100131.56;260150;1107;103068;-72
2021/06/05 13:02:45;;;;;;;3.28;3.08;;;;;;;25.09;37.03;100123.05;262658;1107;101688;-72
2021/06/05 13:07:53;;;;;;;2.88;2.68;;;;;;;25.31;37.07;100121.28;262644;1107;101477;-73
2021/06/05 13:13:15;;;;;;;3.53;3.33;;;;;;;25.55;36.37;100112.56;261332;1107;103464;-71
2021/06/05 13:18:30;;;;;;;3.23;3.08;;;;;;;25.47;35.79;100122.36;261871;1107;103123;-72
2021/06/05 13:23:41;;;;;;;3.60;2.85;;;;;;;25.47;36.32;100105.98;261036;1107;102968;-70
2021/06/05 13:28:45;;;;;;;4.48;2.70;;;;;;;25.53;35.83;100109.35;261305;1106;103024;-70
2021/06/05 13:34:10;;;;;;;2.75;2.55;;;;;;;25.37;36.13;100109.88;260993;1106;103061;-72
2021/06/05 13:39:17;;;;;;;4.08;3.78;;;;;;;25.30;36.35;100097.85;260719;1106;103052;-71
2021/06/05 13:44:21;;;;;;;3.55;3.13;;;;;;;25.24;36.06;100096.41;260405;1107;103039;-70
2021/06/05 13:49:25;;;;;;;3.53;2.95;;;;;;;25.15;36.80;100088.23;260422;1107;103000;-71
2021/06/05 13:54:29;;;;;;;6.45;3.50;;;;;;;25.25;37.08;100098.02;260836;1102;102987;-71
2021/06/05 13:59:34;;;;;;;3.90;3.50;;;;;;;24.96;36.78;100093.23;261072;1107;103393;-71
2021/06/05 14:04:39;;;;;;;6.20;3.38;;;;;;;24.98;37.10;100089.06;260042;1107;103030;-72
2021/06/05 14:09:45;;;;;;;;;;;;;;;24.96;37.18;100083.13;260076;1107;103023;-72
2021/06/05 14:14:51;;;;;;;3.28;2.98;;;;;;;24.93;36.91;100083.73;260073;1107;103286;-70
2021/06/05 14:19:57;;;;;;;3.17;2.97;;;;;;;24.70;37.53;100082.30;260128;1102;103010;-70
2021/06/05 14:25:05;;;;;;;3.37;3.17;;;;;;;24.80;37.25;100076.52;259933;1107;103084;-72
2021/06/05 14:30:18;;;;;;;3.03;2.83;;;;;;;24.84;36.98;100082.93;259958;1107;103091;-70
2021/06/05 14:35:23;;;;;;;3.10;2.80;;;;;;;24.77;37.35;100088.86;260148;1107;103071;-71
2021/06/05 14:40:28;;;;;;;3.63;3.03;;;;;;;24.62;37.78;100085.82;261700;1107;103319;-74
2021/06/05 14:45:37;;;;;;;4.00;3.70;;;;;;;24.21;37.88;100084.27;261714;1107;101571;-74
2021/06/05 14:50:44;;;;;;;3.45;3.15;;;;;;;24.22;38.17;100083.15;262158;1107;102794;-75
2021/06/05 14:55:48;;;;;;;7.53;3.65;;;;;;;24.34;38.41;100083.38;261897;1107;102934;-72
2021/06/05 15:00:54;;;;;;;4.80;2.93;;;;;;;24.24;38.14;100094.53;262664;1107;102733;-71
2021/06/05 15:05:58;;;;;;;3.13;2.93;;;;;;;24.20;38.59;100088.11;262401;1107;102159;-71
2021/06/05 15:11:03;;;;;;;5.40;3.85;;;;;;;24.19;38.56;100086.50;261639;1107;102941;-73
2021/06/05 15:16:07;;;;;;;3.10;2.78;;;;;;;24.20;38.87;100096.28;261547;1107;103391;-74
2021/06/05 15:21:13;;;;;;;3.23;3.03;;;;;;;24.09;39.19;100089.54;261396;1107;103119;-70
2021/06/05 15:26:18;;;;;;;3.40;3.10;;;;;;;24.02;38.87;100098.16;261206;1107;102945;-73
2021/06/05 15:31:26;;;;;;;2.78;2.68;;;;;;;23.90;39.22;100084.33;261626;1107;102933;-75
2021/06/05 15:36:30;;;;;;;3.30;3.10;;;;;;;23.77;39.26;100094.23;259969;1107;102993;-72
2021/06/05 15:41:35;;;;;;;4.36;2.96;;;;;;;23.71;39.32;100086.50;260556;1107;103129;-72
2021/06/05 15:46:40;;;;;;;5.05;2.50;;;;;;;23.58;39.54;100095.55;260451;1106;103017;-71
2021/06/05 15:51:47;;;;;;;3.87;3.43;;;;;;;23.50;39.60;100080.78;260152;1103;103336;-70
2021/06/05 15:56:54;;;;;;;6.95;2.73;;;;;;;23.41;39.84;100091.61;259987;1107;102993;-71
2021/06/05 16:01:58;;;;;;;3.18;2.93;;;;;;;23.19;39.68;100086.20;260645;1107;103009;-71
2021/06/05 16:07:03;;;;;;;3.20;2.40;;;;;;;23.03;40.08;100091.19;259941;1107;103340;-71
2021/06/05 16:12:07;;;;;;;2.45;2.13;;;;;;;22.95;40.16;100083.76;260419;1107;102965;-74
2021/06/05 16:17:11;;;;;;;2.55;2.45;;;;;;;22.79;39.96;100083.33;259916;1102;103393;-76
2021/06/05 16:22:16;;;;;;;6.43;2.75;;;;;;;22.75;40.37;100090.45;259939;1107;102954;-75
2021/06/05 16:27:22;;;;;;;4.15;3.80;;;;;;;22.71;40.35;100094.09;260512;1107;102966;-76
2021/06/05 16:32:27;;;;;;;3.05;2.23;;;;;;;22.67;40.41;100093.89;259811;1107;103117;-73
2021/06/05 16:37:31;;;;;;;3.25;2.90;;;;;;;22.56;40.37;100080.86;259813;1107;103163;-74
2021/06/05 16:42:38;;;;;;;2.73;2.53;;;;;;;22.50;40.53;100078.25;259949;1107;103075;-76
2021/06/05 16:47:43;;;;;;;9.33;5.40;;;;;;;22.43;40.47;100077.86;260754;1107;103043;-71
2021/06/05 16:52:47;;;;;;;11.75;6.88;;;;;;;22.39;40.82;100076.05;261869;1107;102942;-73
2021/06/05 16:57:51;;;;;;;10.48;7.30;;;;;;;22.41;41.00;100084.70;260086;1107;103078;-71
2021/06/05 17:02:58;;;;;;;3.40;3.10;;;;;;;22.35;41.03;100081.28;262008;1107;108313;-76
2021/06/05 17:08:03;;;;;;;4.63;2.85;;;;;;;22.31;41.29;100084.94;262644;1107;101061;-71
2021/06/05 17:13:09;;;;;;;;;;;;;;;22.22;41.66;100084.03;262171;1107;103657;-73
2021/06/05 17:18:17;;;;;;;3.65;2.53;;;;;;;22.06;41.86;100095.19;261983;1107;102773;-74
2021/06/05 17:23:26;;;;;;;3.23;3.03;;;;;;;21.95;41.53;100092.96;261113;1107;103451;-72
2021/06/05 17:28:31;;;;;;;3.85;3.55;;;;;;;21.87;41.83;100099.08;260509;1107;102962;-72
2021/06/05 17:33:37;;;;;;;9.10;3.40;;;;;;;21.77;42.29;100098.16;260945;1107;103120;-77
2021/06/05 17:38:41;;;;;;;;;;;;;;;21.67;42.74;100097.56;261021;1107;102968;-75
2021/06/05 17:43:46;;;;;;;5.83;4.25;;;;;;;21.53;42.95;100089.39;260789;1107;102940;-75
2021/06/05 17:48:51;;;;;;;7.53;6.05;;;;;;;21.41;43.11;100094.47;261650;1106;102941;-75
2021/06/05 17:54:07;;;;;;;4.93;3.57;;;;;;;21.27;43.21;100097.16;260741;1107;102963;-74
2021/06/05 17:59:13;;;;;;;11.38;3.88;;;;;;;21.17;43.40;100102.71;260728;1106;103114;-75
2021/06/05 18:04:26;;;;;;;4.15;3.80;;;;;;;21.08;43.84;100099.09;260391;1107;103107;-75
2021/06/05 18:09:33;;;;;;;9.95;5.50;;;;;;;20.91;44.76;100110.44;260089;1107;102943;-75
2021/06/05 18:14:43;;;;;;;6.20;4.93;;;;;;;20.74;45.07;100110.16;260413;1107;103119;-73
2021/06/05 18:19:47;;;;;;;8.50;4.95;;;;;;;20.49;45.93;100116.70;260980;1107;103054;-77
2021/06/05 18:24:52;;;;;;;8.43;5.55;;;;;;;20.26;46.83;100114.81;260126;1107;102988;-76
2021/06/05 18:30:01;;;;;;;8.53;5.53;;;;;;;20.04;47.28;100124.28;260553;1102;103040;-77
2021/06/05 18:35:08;;;;;;;6.95;4.23;;;;;;;19.84;48.23;100130.72;261102;1107;103120;-75
2021/06/05 18:40:15;;;;;;;4.68;4.28;;;;;;;19.64;48.77;100130.90;262081;1107;102941;-75
2021/06/05 18:45:25;;;;;;;4.95;4.55;;;;;;;19.45;49.55;100135.38;260924;1101;102968;-76
2021/06/05 18:50:33;;;;;;;4.05;3.75;;;;;;;19.24;49.90;100144.75;261420;1107;102965;-78
2021/06/05 18:55:46;;;;;;;4.28;3.90;;;;;;;18.88;50.38;100147.69;262052;1107;103030;-78
2021/06/05 19:00:51;;;;;;;6.58;4.88;;;;;;;18.64;50.91;100149.45;262035;1106;102910;-78
2021/06/05 19:05:57;;;;;;;5.08;4.58;;;;;;;18.46;51.88;100156.23;262291;1107;101494;-78
2021/06/05 19:11:06;;;;;;;5.53;3.85;;;;;;;18.30;52.21;100158.20;262649;1107;102355;-77
2021/06/05 19:16:14;;;;;;;6.28;4.55;;;;;;;18.14;52.97;100162.81;260476;1101;103059;-75
2021/06/05 19:21:19;;;;;;;5.98;4.05;;;;;;;17.84;52.90;100168.28;261657;1107;103110;-76
2021/06/05 19:26:28;;;;;;;3.78;3.48;;;;;;;17.51;53.49;100167.73;260258;1107;103180;-76
2021/06/05 19:31:33;;;;;;;10.03;4.98;;;;;;;17.31;54.11;100172.31;261658;1107;103008;-78
2021/06/05 19:36:39;;;;;;;8.43;6.53;;;;;;;17.18;54.36;100174.44;261344;1107;103120;-78
2021/06/05 19:41:44;;;;;;;21.83;12.70;;;;;;;17.02;54.59;100186.28;261792;1106;102945;-78
2021/06/05 19:46:49;;;;;;;34.73;19.70;;;;;;;16.86;55.59;100187.30;261152;1107;105691;-76
2021/06/05 19:51:56;;;;;;;36.03;23.35;;;;;;;16.76;55.89;100188.09;260923;1107;103110;-77
2021/06/05 19:57:01;;;;;;;53.83;32.00;;;;;;;16.63;56.01;100199.31;260405;1107;102958;-78
2021/06/05 20:02:11;;;;;;;26.13;17.35;;;;;;;16.47;56.85;100200.33;259896;1107;103272;-78
2021/06/05 20:07:16;;;;;;;25.75;16.30;;;;;;;16.39;57.52;100211.58;260165;1107;103015;-78
2021/06/05 20:12:20;;;;;;;24.50;14.93;;;;;;;16.31;57.88;100217.45;260015;1107;103745;-78
2021/06/05 20:17:25;;;;;;;14.58;11.95;;;;;;;16.23;58.48;100216.05;261008;1107;103033;-79
2021/06/05 20:22:29;;;;;;;20.83;13.83;;;;;;;16.16;58.52;100215.50;260328;1107;103027;-79
2021/06/05 20:27:35;;;;;;;18.68;12.18;;;;;;;16.02;58.45;100211.63;260659;1103;103014;-73
2021/06/05 20:32:41;;;;;;;15.68;11.18;;;;;;;15.76;58.80;100221.39;260139;1103;103123;-76
2021/06/05 20:37:47;;;;;;;;;;;;;;;15.51;59.24;100213.90;260073;1107;103486;-76
2021/06/05 20:42:53;;;;;;;17.60;9.38;;;;;;;15.25;59.74;100210.17;261306;1107;103108;-76
2021/06/05 20:47:59;;;;;;;12.93;10.53;;;;;;;15.12;60.22;100210.56;260760;1107;102968;-75
2021/06/05 20:53:12;;;;;;;13.23;9.90;;;;;;;15.05;60.36;100210.75;261264;1107;103066;-77
2021/06/05 20:58:19;;;;;;;16.98;9.75;;;;;;;14.99;60.19;100214.44;262674;1107;101185;-76
2021/06/05 21:03:28;;;;;;;10.98;8.08;;;;;;;14.83;60.98;100207.30;262631;1107;103253;-75
2021/06/05 21:08:32;;;;;;;10.13;8.88;;;;;;;14.70;60.78;100213.03;262189;1107;102940;-77
2021/06/05 21:13:38;;;;;;;18.58;13.10;;;;;;;14.49;61.16;100203.92;262451;1107;102657;-73
2021/06/05 21:18:44;;;;;;;21.33;12.05;;;;;;;14.39;62.12;100209.92;261594;1107;103058;-76
2021/06/05 21:23:50;;;;;;;27.30;14.40;;;;;;;14.34;62.30;100212.56;261690;1107;102939;-74
2021/06/05 21:28:55;;;;;;;25.43;12.85;;;;;;;14.25;62.36;100216.72;260858;1107;102941;-76
2021/06/05 21:34:00;;;;;;;18.80;13.10;;;;;;;14.10;62.45;100219.17;261066;1107;103114;-76
2021/06/05 21:39:07;;;;;;;27.55;12.78;;;;;;;14.07;63.29;100208.94;260073;1107;103119;-75
2021/06/05 21:44:14;;;;;;;24.15;13.95;;;;;;;14.10;63.42;100219.17;260925;1102;103040;-76
2021/06/05 21:49:19;;;;;;;22.63;12.63;;;;;;;14.12;63.80;100212.51;259969;1106;103075;-76
2021/06/05 21:54:23;;;;;;;15.70;10.98;;;;;;;13.92;63.91;100208.72;260176;1107;103041;-73
2021/06/05 21:59:27;;;;;;;12.20;8.90;;;;;;;13.61;64.09;100205.56;260123;1107;103390;-75
2021/06/05 22:04:33;;;;;;;15.55;10.45;;;;;;;13.30;64.37;100212.27;260371;1107;103037;-76
2021/06/05 22:09:38;;;;;;;16.43;12.75;;;;;;;13.14;64.70;100213.84;260223;1107;103113;-77
2021/06/05 22:14:47;;;;;;;17.33;12.08;;;;;;;13.10;64.97;100211.88;260224;1107;103001;-78
2021/06/05 22:19:53;;;;;;;16.70;11.60;;;;;;;12.97;64.95;100220.98;260109;1107;103033;-77
2021/06/05 22:25:01;;;;;;;24.78;14.68;;;;;;;12.89;65.70;100224.03;260996;1107;103036;-76
2021/06/05 22:30:23;;;;;;;17.50;12.80;;;;;;;12.94;66.45;100218.79;260760;1107;103070;-75
2021/06/05 22:35:30;;;;;;;14.50;10.75;;;;;;;12.94;66.17;100221.47;260656;1107;103044;-77
2021/06/05 22:40:36;;;;;;;16.08;11.10;;;;;;;12.93;66.21;100222.52;260185;1107;103040;-77
2021/06/05 22:45:41;;;;;;;12.68;11.33;;;;;;;12.82;66.26;100210.01;259891;1107;102971;-78
2021/06/05 22:50:46;;;;;;;18.30;10.73;;;;;;;12.75;66.76;100217.34;260825;1107;103306;-77
2021/06/05 22:55:52;;;;;;;12.23;10.53;;;;;;;12.75;67.12;100220.84;261195;1103;103039;-77
2021/06/05 23:01:01;;;;;;;30.38;17.78;;;;;;;12.74;66.80;100210.38;260549;1107;103574;-77
2021/06/05 23:06:13;;;;;;;16.88;11.88;;;;;;;12.71;66.80;100210.84;260197;1107;103126;-76
2021/06/05 23:11:26;;;;;;;17.75;12.58;;;;;;;12.45;66.52;100210.33;262476;1107;102539;-77
2021/06/05 23:16:31;;;;;;;33.48;18.63;;;;;;;12.34;67.10;100207.66;260238;1107;103116;-79